Warning: Javascript must be enabled to use all the features on this page!


Page Loading - Please Wait...

Click to hideNews Bulletins

Peak Streamflow for Texas

Click to hide state-specific text

Explore Real-time Water Data Using New Products from USGS TXWSC

View over 750 USGS real-time stream, lake, reservoir, precipitation, and groundwater stations in context with current weather and hazard conditions on both desktop and mobile devices.

Click to go to the Texas Water Dashboard Click to go to the WATER On-the-go app

Follow @USGS_TexasFlood and @USGS_TexasRain on Twitter to get current water level and precipitation data during flooding or severe rainfall events.


USGS 08106500 Little Rv nr Cameron, TX

Milam County, Texas
Hydrologic Unit Code 12070204
Latitude  30°50'06", Longitude  96°56'47" NAD27
Drainage area 7,065  square miles
Contributing drainage area 7,065  square miles
Gage datum 281.89 feet above NGVD29
Output formats
Table
Graph
Tab-separated file
peakfq (watstore) format
Reselect output format
Water
Year
Date Gage
Height
(feet)
Stream-
flow
(cfs)
1852 1852 49.503,5,Bm  
1914 1913-12 49.003,5,Bd  
1917 1917-09-07 16.503 5,860
1918 1918-04-17 30.403 16,500
1919 1918-12-26 30.203 15,900
1920 1920-01-24 31.603 30,000
1921 1921-09-10 49.503 647,000
1922 1922-05-05 34.703 92,000
1923 1923-04-13 33.203,6 21,500
1924 1923-12-14 34.553 34,100
1925 1925-09-14 14.203 4,290
1926 1926-04-22 36.983 61,000
1927 1927-02-11 31.323 13,500
1928 1927-10-05 33.673 18,000
1929 1929-05-29 40.703 138,000
1930 1930-05-11 37.003 61,000
1931 1930-10-09 34.003 20,800
1932 1932-09-04 34.103 19,000
1933 1933-05-28 24.603 8,820
1934 1934-04-06 34.376 31,700
1935 1935-05-20 37.40 82,000
1936 1936-09-29 38.75 107,000
1937 1936-12-08 32.23 13,900
1938 1938-01-24 35.48 50,400
1939 1939-05-19 30.65 12,400
1940 1940-07-01 36.65 67,100
1941 1940-11-25 37.35 82,000
1942 1942-09-09 36.32 67,900
1943 1942-10-20 26.35 9,920
1944 1944-05-27 37.24 81,000
1945 1945-04-23 37.44 82,000
1946 1946-03-16 32.33 15,100
1947 1947-01-19 33.68 24,600
1948 1948-05-13 23.06 8,670
1949 1949-04-26 35.32 42,400
1950 1950-02-13 31.10 15,400
1951 1951-06-05 15.49 5,010
1952 1952-04-24 28.53 13,200
1953 1953-05-16 34.00 28,200
1954 1953-10-27 35.03 41,7006
1955 1955-05-21 26.15 10,2006
1956 1956-05-04 23.12 8,1606
1957 1957-04-25 39.56 116,0006
1958 1957-10-15 38.90 103,0006
1959 1959-04-12 21.20 7,2906
1960 1959-10-06 37.07 71,5006
1961 1960-10-30 35.97 55,0006
1962 1962-06-05 18.84 6,7306
1963 1962-11-28 27.88 12,7006
1964 1964-06-17 25.18 11,5006
1965 1965-05-18 38.42 100,0006
1966 1966-04-25 35.19 45,2006
1967 1967-05-03 27.12 13,9006
1968 1968-01-22 36.67 65,2006
1969 1969-04-14 33.56 26,9006
1970 1970-03-08 33.14 23,1006
1971 1971-08-01 14.89 5,0506
1972 1971-12-06 17.04 6,3006
1973 1973-05-08 28.74 14,4006
1974 1974-05-11 31.41 17,8006
1975 1975-05-25 36.58 63,8006
1976 1976-04-19 33.93 29,9006
1977 1977-04-17 34.95 40,5006
1978 1978-03-08 10.85 2,7606
1979 1979-07-27 36.69 65,3006
1980 1980-05-15 29.52 15,2006
1981 1981-06-15 35.04 41,6006
1982 1982-05-14 29.79 15,8006
1983 1983-05-22 29.30 15,4006
1984 1984-06-06 9.07 2,4706
1985 1985-02-24 29.44 15,5006
1986 1986-02-05 33.01 22,5006
1987 1986-12-24 32.88 21,9006
1988 1988-06-04 12.81 4,2906
1989 1989-05-19 28.88 15,0006
1990 1990-05-04 27.09 13,4006
1991 1991-01-11 33.05 22,8006
1992 1991-12-21 38.953 116,0006
1993 1993-05-11 29.83 17,0006
1994 1994-05-17 14.89 6,2606
1995 1995-03-14 28.04 15,5006
1996 1996-09-19 17.72 8,5206
1997 1997-04-05 33.84 31,0006
1998 1997-12-22 27.80 16,7006
1999 1998-10-19 35.48 47,0006
2000 2000-05-03 13.43 6,9006
2001 2001-03-28 26.28 17,5006
2002 2001-12-17 31.44 25,9006
2003 2003-02-22 29.48 22,9006
2004 2004-05-13 31.62 27,4006
2005 2004-11-24 33.16 32,6006
2006 2006-05-07 13.57 7,3206
2007 2007-07-15 35.12 42,6006
2008 2008-05-16 25.39 17,4006
2009 2009-09-13 26.49 18,6006
2010 2010-09-10 28.10 21,8006
2011 2011-05-13 6.59 2,4606
2012 2012-03-21 27.35 20,7006
2013 2013-01-10 10.73 5,9006
2014 2013-11-01 28.39 22,3006
2015 2015-05-27 34.82 40,8006
2016 2016-04-18 35.25 39,9006
2017 2017-04-12 28.62 22,3006
2018 2018-03-29 22.56 15,8006
2019 2019-01-04 34.16 35,3006
2020 2020-04-15 11.90 6,1706
?
  Peak Gage-Height Qualification Codes.
?
  Peak Streamflow Qualification Codes.